This is the latest recevied weather packets stored in our database for station/object KG6QHD-13. If no packets are shown the sender has not sent any weather packets the latest 10 day(s).
| Time | Temp. | Humidity | Pressure | Rain* | Wind** | Luminosity | Snow |
|---|---|---|---|---|---|---|---|
| 1777868153 | 11.67° C | 31% | 1016.8 hPa | 0 mm | - | 0 W/m² | - |
| 1777867253 | 11.67° C | 31% | 1016.8 hPa | 0 mm | - | 0 W/m² | - |
| 1777866948 | 11.67° C | 31% | 1016.8 hPa | 0 mm | - | 0 W/m² | - |
| 1777860348 | 15° C | 22% | 1016.1 hPa | 0 mm | - | 0 W/m² | - |
| 1777859745 | 15° C | 22% | 1016.1 hPa | 0 mm | - | 0 W/m² | - |
| 1777853445 | 17.78° C | 18% | 1015.6 hPa | 0 mm | - | 81 W/m² | - |
| 1777852245 | 17.78° C | 18% | 1015.5 hPa | 0 mm | - | 169 W/m² | - |
| 1777851055 | 17.78° C | 16% | 1015.6 hPa | 0 mm | - | 223 W/m² | - |
| 1777850447 | 18.33° C | 16% | 1015.6 hPa | 0 mm | - | 221 W/m² | - |
| 1777846843 | 17.78° C | 15% | 1015.8 hPa | 0 mm | - | 315 W/m² | - |
| 1777845944 | 18.33° C | 16% | 1015.9 hPa | 0 mm | - | 232 W/m² | - |
| 1777842644 | 20° C | 15% | 1016.7 hPa | 0 mm | - | 865 W/m² | - |
| 1777842344 | 19.44° C | 16% | 1016.8 hPa | 0 mm | - | 937 W/m² | - |
| 1777841450 | 18.33° C | 16% | 1017 hPa | 0 mm | - | 364 W/m² | - |
| 1777838454 | 17.78° C | 15% | 1017.9 hPa | 0 mm | - | 729 W/m² | - |
| 1777837551 | 17.22° C | 13% | 1018.2 hPa | 0 mm | - | 543 W/m² | - |
| 1777835752 | 17.78° C | 15% | 1018.6 hPa | 0 mm | - | 872 W/m² | - |
| 1777835444 | 17.78° C | 14% | 1018.6 hPa | 0 mm | - | 737 W/m² | - |
| 1777834858 | 17.22° C | 15% | 1018.8 hPa | 0 mm | - | 993 W/m² | - |
| 1777834544 | 17.22° C | 16% | 1019 hPa | 0 mm | - | 780 W/m² | - |
| 1777831254 | 16.67° C | 19% | 1019.9 hPa | 0 mm | - | 911 W/m² | - |
| 1777830945 | 16.67° C | 20% | 1019.8 hPa | 0 mm | - | 835 W/m² | - |
| 1777830644 | 16.11° C | 20% | 1020 hPa | 0 mm | - | 837 W/m² | - |
| 1777826752 | 14.44° C | 24% | 1021 hPa | 0 mm | - | 455 W/m² | - |
| 1777826446 | 14.44° C | 25% | 1021 hPa | 0 mm | - | 408 W/m² | - |
* Rain latest hour (hover to see other rain measurements)
** Current wind speed in m/s (hover to see current wind gust speed)